Algiers, Louisiana
Current Conditions -  °F | °C
As of 2:35 AM on Saturday 29 Nov 2014 (Local Time) from KVSH Reporting Station
Clear Clear  
Wind Chill: 55°   Ceiling: Unl
Heat Index: 55°   Visibility: 10mi
Dew Point: 46°   Wind: 3mph
Humidity: 72%   Direction: 150°SSE
Pressure: 30.23"   Gusts: NA
Location:  29.935°N, 90.0314°W
Report Text: KVSH 290835Z AUTO 15003KT 10SM CLR 13/08 A3023 RMK AO1
Loading
Personal Weather Stations






























Interactive Weather Map New forecast layout! Learn more

10-Day Weather Forecast

Advertisements
Track Severe Weather on mobile